Time;durP1;ratioP1;P1;durP2;ratioP2;P2;SDS_P1;SDS_P2;PMS_P1;PMS_P2;Temp;Humidity;BMP_temperature;BMP_pressure;BME280_temperature;BME280_humidity;BME280_pressure;Samples;Min_cycle;Max_cycle;Signal;HPM_P1;HPM_P2
2021/01/18 00:01:40;;;;;;;14.60;11.63;;;;;;;-144.01;100.00;62166.59;5076456;28;20045;-52
2021/01/18 00:04:07;;;;;;;14.02;11.27;;;;;;;-144.01;100.00;62166.59;5086076;28;20063;-63
2021/01/18 00:06:35;;;;;;;14.00;11.52;;;;;;;-144.01;100.00;62166.59;5115447;28;20079;-59
2021/01/18 00:09:03;;;;;;;14.05;11.20;;;;;;;-144.01;100.00;62166.59;5096543;28;20063;-66
2021/01/18 00:11:30;;;;;;;15.35;12.10;;;;;;;-144.01;100.00;62166.59;5090542;28;20462;-53
2021/01/18 00:13:57;;;;;;;16.77;12.40;;;;;;;-144.01;100.00;62166.59;5076125;28;20044;-53
2021/01/18 00:16:24;;;;;;;16.60;12.48;;;;;;;-144.01;100.00;62166.59;5080790;28;20068;-70
2021/01/18 00:18:51;;;;;;;15.00;12.23;;;;;;;-144.01;100.00;62166.59;5098072;28;20052;-69
2021/01/18 00:21:19;;;;;;;14.98;12.15;;;;;;;-144.01;100.00;62166.59;5079383;28;20052;-53
2021/01/18 00:23:46;;;;;;;17.33;13.23;;;;;;;-144.01;100.00;62166.59;5078341;28;20052;-59
2021/01/18 00:26:13;;;;;;;16.25;12.75;;;;;;;-144.01;100.00;62166.59;5075966;28;20366;-55
2021/01/18 00:28:40;;;;;;;14.57;12.45;;;;;;;-144.01;100.00;62166.59;5089807;28;20473;-61
2021/01/18 00:31:08;;;;;;;15.00;13.05;;;;;;;-144.01;100.00;62166.59;5076055;28;20048;-68
2021/01/18 00:33:36;;;;;;;14.00;12.10;;;;;;;-144.01;100.00;62166.59;5075539;28;20389;-57
2021/01/18 00:36:05;;;;;;;15.30;13.18;;;;;;;-144.01;100.00;62166.59;5103177;28;20051;-62
2021/01/18 00:38:33;;;;;;;16.40;13.15;;;;;;;-144.01;100.00;62166.59;5108393;28;20055;-69
2021/01/18 00:41:00;;;;;;;15.90;12.90;;;;;;;-144.01;100.00;62166.59;5102213;28;20055;-70
2021/01/18 00:43:30;;;;;;;15.85;13.07;;;;;;;-144.01;100.00;62166.59;5057930;28;20051;-64
2021/01/18 00:45:57;;;;;;;16.10;13.48;;;;;;;-144.01;100.00;62166.59;5088365;28;20043;-66
2021/01/18 00:48:25;;;;;;;16.60;12.65;;;;;;;-144.01;100.00;62166.59;5089632;28;20052;-54
2021/01/18 00:50:52;;;;;;;17.73;13.65;;;;;;;-144.01;100.00;62166.59;5078287;28;20055;-54
2021/01/18 00:53:20;;;;;;;15.65;12.25;;;;;;;-144.01;100.00;62166.59;5079493;28;20044;-54
2021/01/18 00:55:48;;;;;;;15.95;13.43;;;;;;;-144.01;100.00;62166.59;5057618;28;20470;-54
2021/01/18 00:58:35;;;;;;;16.10;12.88;;;;;;;-144.01;100.00;62166.59;5076563;28;20486;-53
2021/01/18 01:01:21;;;;;;;15.95;13.38;;;;;;;-144.01;100.00;62166.59;5075309;28;20467;-66
2021/01/18 01:03:49;;;;;;;13.40;12.00;;;;;;;-144.01;100.00;62166.59;5057743;28;20130;-70
2021/01/18 01:06:16;;;;;;;15.68;12.40;;;;;;;-144.01;100.00;62166.59;5088569;28;20048;-66
2021/01/18 01:08:43;;;;;;;15.18;12.60;;;;;;;-144.01;100.00;62166.59;5088241;28;20047;-68
2021/01/18 01:11:10;;;;;;;14.75;12.70;;;;;;;-144.01;100.00;62166.59;5098668;28;20040;-61
2021/01/18 01:13:38;;;;;;;16.73;12.32;;;;;;;-144.01;100.00;62166.59;5087492;28;20055;-56
2021/01/18 01:16:05;;;;;;;15.18;12.13;;;;;;;-144.01;100.00;62166.59;5087207;28;20063;-53
2021/01/18 01:18:32;;;;;;;18.40;12.93;;;;;;;-144.01;100.00;62166.59;5089119;28;20048;-61
2021/01/18 01:20:59;;;;;;;18.65;13.48;;;;;;;-144.01;100.00;62166.59;5115762;28;20373;-62
2021/01/18 01:23:27;;;;;;;17.90;13.50;;;;;;;-144.01;100.00;62166.59;5094184;28;20063;-64
2021/01/18 01:25:54;;;;;;;16.95;13.25;;;;;;;-144.01;100.00;62166.59;5075122;28;20052;-55
2021/01/18 01:28:22;;;;;;;17.33;13.25;;;;;;;-144.01;100.00;62166.59;5088170;28;20044;-68
2021/01/18 01:30:49;;;;;;;17.60;13.70;;;;;;;-144.01;100.00;62166.59;5090907;28;20051;-55
2021/01/18 01:33:16;;;;;;;14.82;12.52;;;;;;;-144.01;100.00;62166.59;5077723;28;20048;-57
2021/01/18 01:35:43;;;;;;;13.27;11.32;;;;;;;-144.01;100.00;62166.59;5089910;28;20048;-65
2021/01/18 01:38:11;;;;;;;15.60;11.85;;;;;;;-144.01;100.00;62166.59;5111629;28;20048;-59
2021/01/18 01:40:38;;;;;;;14.13;11.88;;;;;;;-144.01;100.00;62166.59;5086551;28;20052;-65
2021/01/18 01:43:06;;;;;;;15.75;12.38;;;;;;;-144.01;100.00;62166.59;5078780;28;20463;-54
2021/01/18 01:45:33;;;;;;;13.68;11.48;;;;;;;-144.01;100.00;62166.59;5098073;28;20047;-57
2021/01/18 01:48:00;;;;;;;13.23;11.25;;;;;;;-144.01;100.00;62166.59;5102431;28;20451;-65
2021/01/18 01:50:33;;;;;;;13.88;11.38;;;;;;;-144.01;100.00;62166.59;5109883;28;20420;-66
2021/01/18 01:53:26;;;;;;;12.88;11.20;;;;;;;-144.01;100.00;62166.59;5089663;28;20056;-60
2021/01/18 01:55:55;;;;;;;12.73;10.18;;;;;;;-144.01;100.00;62166.59;5060915;28;20362;-60
2021/01/18 01:58:22;;;;;;;13.40;10.68;;;;;;;-144.01;100.00;62166.59;5090852;28;20058;-70
2021/01/18 02:00:50;;;;;;;11.65;9.98;;;;;;;-144.01;100.00;62166.59;5089307;28;20051;-56
2021/01/18 02:03:25;;;;;;;12.63;10.55;;;;;;;-144.01;100.00;62166.59;5079720;28;20059;-56
2021/01/18 02:05:53;;;;;;;12.02;10.10;;;;;;;-144.01;100.00;62166.59;5078752;28;20348;-70
2021/01/18 02:08:21;;;;;;;12.95;10.85;;;;;;;-144.01;100.00;62166.59;5085998;28;20436;-53
2021/01/18 02:10:48;;;;;;;14.25;10.73;;;;;;;-144.01;100.00;62166.59;5078458;28;20055;-65
2021/01/18 02:13:37;;;;;;;11.63;10.32;;;;;;;-144.01;100.00;62166.59;5078310;28;20048;-61
2021/01/18 02:16:20;;;;;;;13.20;10.55;;;;;;;-144.01;100.00;62166.59;5106106;28;20477;-61
2021/01/18 02:19:12;;;;;;;12.38;10.63;;;;;;;-144.01;100.00;62166.59;5095344;28;20443;-54
2021/01/18 02:22:18;;;;;;;13.85;11.13;;;;;;;-144.01;100.00;62166.59;5101487;28;20556;-70
2021/01/18 02:25:01;;;;;;;14.48;11.63;;;;;;;-144.01;100.00;62166.59;5066836;28;20044;-58
2021/01/18 02:27:43;;;;;;;14.40;11.90;;;;;;;-144.01;100.00;62166.59;5081511;28;20458;-53
2021/01/18 02:30:32;;;;;;;14.93;11.80;;;;;;;-144.01;100.00;62166.59;5100007;28;20039;-54
2021/01/18 02:33:05;;;;;;;15.20;12.50;;;;;;;-144.01;100.00;62166.59;5080530;28;20389;-55
2021/01/18 02:35:53;;;;;;;14.88;12.32;;;;;;;-144.01;100.00;62166.59;5103305;28;20047;-53
2021/01/18 02:38:58;;;;;;;14.30;11.77;;;;;;;-144.01;100.00;62166.59;5104576;28;20056;-54
2021/01/18 02:41:50;;;;;;;14.75;11.88;;;;;;;-144.01;100.00;62166.59;5075479;28;20055;-54
2021/01/18 02:44:19;;;;;;;15.00;12.57;;;;;;;-144.01;100.00;62166.59;5076675;28;20052;-55
2021/01/18 02:46:49;;;;;;;17.75;14.15;;;;;;;-144.01;100.00;62166.59;5089857;28;20048;-53
2021/01/18 02:49:17;;;;;;;16.00;13.80;;;;;;;-144.01;100.00;62166.59;5081612;28;20056;-53
2021/01/18 02:52:14;;;;;;;18.63;14.57;;;;;;;-144.01;100.00;62166.59;5065306;28;20060;-55
2021/01/18 02:54:41;;;;;;;15.95;12.95;;;;;;;-144.01;100.00;62166.59;5075531;28;20049;-53
2021/01/18 02:57:16;;;;;;;15.73;13.25;;;;;;;-144.01;100.00;62166.59;5077719;28;20048;-55
2021/01/18 02:59:43;;;;;;;15.68;12.63;;;;;;;-144.01;100.00;62166.59;5083935;28;20054;-55
2021/01/18 03:02:43;;;;;;;16.48;12.88;;;;;;;-144.01;100.00;62166.59;5097712;28;20044;-56
2021/01/18 03:05:32;;;;;;;14.82;11.93;;;;;;;-144.01;100.00;62166.59;5080359;28;20062;-55
2021/01/18 03:08:08;;;;;;;15.43;12.32;;;;;;;-144.01;100.00;62166.59;5102002;28;20044;-67
2021/01/18 03:10:42;;;;;;;15.00;12.20;;;;;;;-144.01;100.00;62166.59;5077307;28;20048;-62
2021/01/18 03:13:52;;;;;;;14.23;12.10;;;;;;;-144.01;100.00;62166.59;5063120;28;20044;-62
2021/01/18 03:16:23;;;;;;;14.60;11.90;;;;;;;-144.01;100.00;62166.59;5078337;28;20458;-70
2021/01/18 03:18:52;;;;;;;15.07;12.25;;;;;;;-144.01;100.00;62166.59;5059953;28;20052;-54
2021/01/18 03:21:20;;;;;;;13.93;12.13;;;;;;;-144.01;100.00;62166.59;5090720;28;20047;-54
2021/01/18 03:23:47;;;;;;;13.55;12.13;;;;;;;-144.01;100.00;62166.59;5097325;28;20055;-54
2021/01/18 03:26:15;;;;;;;15.75;12.80;;;;;;;-144.01;100.00;62166.59;5070180;28;20106;-54
2021/01/18 03:28:42;;;;;;;15.38;12.60;;;;;;;-144.01;100.00;62166.59;5077068;28;20459;-55
2021/01/18 03:31:09;;;;;;;16.38;12.80;;;;;;;-144.01;100.00;62166.59;5088553;28;20107;-53
2021/01/18 03:33:36;;;;;;;17.63;13.70;;;;;;;-144.01;100.00;62166.59;5084003;28;20048;-54
2021/01/18 03:36:03;;;;;;;16.60;14.15;;;;;;;-144.01;100.00;62166.59;5105350;28;20051;-53
2021/01/18 03:38:31;;;;;;;17.80;15.07;;;;;;;-144.01;100.00;62166.59;5084214;28;20067;-59
2021/01/18 03:40:58;;;;;;;17.77;15.27;;;;;;;-144.01;100.00;62166.59;5084299;28;20051;-62
2021/01/18 03:43:25;;;;;;;19.75;16.00;;;;;;;-144.01;100.00;62166.59;5076833;28;20355;-71
2021/01/18 03:45:52;;;;;;;19.20;16.42;;;;;;;-144.01;100.00;62166.59;5080369;28;20451;-61
2021/01/18 03:48:19;;;;;;;19.08;16.42;;;;;;;-144.01;100.00;62166.59;5076879;28;20051;-65
2021/01/18 03:50:48;;;;;;;18.73;15.23;;;;;;;-144.01;100.00;62166.59;5084392;28;20446;-67
2021/01/18 03:53:15;;;;;;;18.13;15.82;;;;;;;-144.01;100.00;62166.59;5096875;28;20055;-53
2021/01/18 03:55:42;;;;;;;18.15;14.80;;;;;;;-144.01;100.00;62166.59;5096466;28;20048;-53
2021/01/18 03:58:10;;;;;;;17.35;14.80;;;;;;;-144.01;100.00;62166.59;5090005;28;20051;-55
2021/01/18 04:00:37;;;;;;;18.15;15.45;;;;;;;-144.01;100.00;62166.59;5082578;28;20454;-53
2021/01/18 04:03:04;;;;;;;17.83;14.57;;;;;;;-144.01;100.00;62166.59;5066129;28;20059;-55
2021/01/18 04:05:32;;;;;;;16.08;14.15;;;;;;;-144.01;100.00;62166.59;5096172;28;20078;-64
2021/01/18 04:07:59;;;;;;;15.52;13.73;;;;;;;-144.01;100.00;62166.59;5078647;28;20044;-70
2021/01/18 04:10:28;;;;;;;16.38;13.68;;;;;;;-144.01;100.00;62166.59;5080465;28;20044;-60
2021/01/18 04:12:56;;;;;;;15.80;13.80;;;;;;;-144.01;100.00;62166.59;5096507;28;20451;-53
2021/01/18 04:15:26;;;;;;;16.58;13.50;;;;;;;-144.01;100.00;62166.59;5100906;28;20051;-65
2021/01/18 04:17:55;;;;;;;16.23;13.25;;;;;;;-144.01;100.00;62166.59;5116682;28;20048;-55
2021/01/18 04:20:23;;;;;;;17.17;13.85;;;;;;;-144.01;100.00;62166.59;5083654;28;20374;-53
2021/01/18 04:22:58;;;;;;;15.25;13.48;;;;;;;-144.01;100.00;62166.59;5092408;28;20044;-53
2021/01/18 04:25:27;;;;;;;16.33;13.35;;;;;;;-144.01;100.00;62166.59;5075859;28;20059;-57
2021/01/18 04:27:59;;;;;;;16.77;13.93;;;;;;;-144.01;100.00;62166.59;5075945;28;20762;-55
2021/01/18 04:30:28;;;;;;;20.00;14.60;;;;;;;-144.01;100.00;62166.59;5079572;28;20044;-55
2021/01/18 04:33:03;;;;;;;16.02;13.15;;;;;;;-144.01;100.00;62166.59;5077482;28;20067;-57
2021/01/18 04:35:31;;;;;;;15.73;13.35;;;;;;;-144.01;100.00;62166.59;5084369;28;20351;-54
2021/01/18 04:37:59;;;;;;;17.35;13.52;;;;;;;-144.01;100.00;62166.59;5075658;28;20370;-52
2021/01/18 04:40:28;;;;;;;16.75;14.38;;;;;;;-144.01;100.00;62166.59;5078937;28;20355;-53
2021/01/18 04:42:56;;;;;;;16.42;13.25;;;;;;;-144.01;100.00;62166.59;5096001;28;20048;-54
2021/01/18 04:45:25;;;;;;;15.93;13.40;;;;;;;-144.01;100.00;62166.59;5086700;28;20044;-52
2021/01/18 04:47:53;;;;;;;15.10;13.48;;;;;;;-144.01;100.00;62166.59;5092879;28;20044;-53
2021/01/18 04:50:24;;;;;;;17.13;13.82;;;;;;;-144.01;100.00;62166.59;5077828;28;20052;-55
2021/01/18 04:52:52;;;;;;;17.33;13.80;;;;;;;-144.01;100.00;62166.59;5086017;28;20051;-54
2021/01/18 04:55:40;;;;;;;15.98;13.35;;;;;;;-144.01;100.00;62166.59;5075438;28;20122;-55
2021/01/18 04:58:12;;;;;;;17.65;14.13;;;;;;;-144.01;100.00;62166.59;5075330;28;20044;-60
2021/01/18 05:00:40;;;;;;;16.13;13.30;;;;;;;-144.01;100.00;62166.59;5076202;28;20044;-53
2021/01/18 05:03:09;;;;;;;15.85;12.93;;;;;;;-144.01;100.00;62166.59;5075644;28;20063;-53
2021/01/18 05:05:51;;;;;;;16.58;13.57;;;;;;;-144.01;100.00;62166.59;5087887;28;20043;-53
2021/01/18 05:08:37;;;;;;;16.52;13.77;;;;;;;-144.01;100.00;62166.59;5091282;28;20051;-52
2021/01/18 05:11:04;;;;;;;17.42;14.13;;;;;;;-144.01;100.00;62166.59;5099228;28;20454;-55
2021/01/18 05:13:31;;;;;;;16.17;13.68;;;;;;;-144.01;100.00;62166.59;5107926;28;20048;-53
2021/01/18 05:16:00;;;;;;;14.85;12.95;;;;;;;-144.01;100.00;62166.59;5110195;28;20047;-53
2021/01/18 05:18:33;;;;;;;16.60;13.90;;;;;;;-144.01;100.00;62166.59;5103660;28;20051;-53
2021/01/18 05:21:05;;;;;;;16.38;13.60;;;;;;;-144.01;100.00;62166.59;5109372;28;20054;-55
2021/01/18 05:23:40;;;;;;;17.42;13.65;;;;;;;-144.01;100.00;62166.59;5112507;28;20054;-58
2021/01/18 05:26:21;;;;;;;15.27;12.85;;;;;;;-144.01;100.00;62166.59;5112633;28;20051;-53
2021/01/18 05:28:50;;;;;;;16.30;13.90;;;;;;;-144.01;100.00;62166.59;5077664;28;20512;-53
2021/01/18 05:31:38;;;;;;;16.63;13.48;;;;;;;-144.01;100.00;62166.59;5107937;28;20062;-59
2021/01/18 05:34:15;;;;;;;17.92;14.52;;;;;;;-144.01;100.00;62166.59;5104097;28;20365;-56
2021/01/18 05:36:43;;;;;;;14.82;12.50;;;;;;;-144.01;100.00;62166.59;5104835;28;20051;-53
2021/01/18 05:39:11;;;;;;;17.77;14.40;;;;;;;-144.01;100.00;62166.59;5094531;28;20048;-52
2021/01/18 05:41:39;;;;;;;17.58;13.55;;;;;;;-144.01;100.00;62166.59;5108021;28;20047;-53
2021/01/18 05:44:07;;;;;;;17.45;13.77;;;;;;;-144.01;100.00;62166.59;5115377;28;20059;-54
2021/01/18 05:46:39;;;;;;;15.68;12.38;;;;;;;-144.01;100.00;62166.59;5077140;28;20044;-79
2021/01/18 05:49:09;;;;;;;19.83;13.13;;;;;;;-144.01;100.00;62166.59;5095259;28;20450;-53
2021/01/18 05:51:37;;;;;;;17.95;13.77;;;;;;;-144.01;100.00;62166.59;5095297;28;20074;-65
2021/01/18 05:54:06;;;;;;;17.63;13.63;;;;;;;-144.01;100.00;62166.59;5095276;28;20052;-54
2021/01/18 05:56:44;;;;;;;15.75;13.07;;;;;;;-144.01;100.00;62166.59;5094785;28;20044;-58
2021/01/18 05:59:19;;;;;;;17.27;13.90;;;;;;;-144.01;100.00;62166.59;5107805;28;20050;-72
2021/01/18 06:01:47;;;;;;;21.00;15.52;;;;;;;-144.01;100.00;62166.59;5115629;28;20050;-78
2021/01/18 06:04:16;;;;;;;20.85;16.33;;;;;;;-144.01;100.00;62166.59;5114786;28;20060;-74
2021/01/18 06:07:04;;;;;;;18.20;14.30;;;;;;;-144.01;100.00;62166.59;5107133;28;20374;-78
2021/01/18 06:09:47;;;;;;;18.23;14.35;;;;;;;-144.01;100.00;62166.59;5090517;28;20351;-61
2021/01/18 06:12:25;;;;;;;19.40;13.90;;;;;;;-144.01;100.00;62166.59;5074878;28;20048;-54
2021/01/18 06:15:08;;;;;;;17.50;13.68;;;;;;;-144.01;100.00;62166.59;5074615;28;20048;-78
2021/01/18 06:17:56;;;;;;;18.27;14.10;;;;;;;-144.01;100.00;62166.59;5087887;28;20447;-57
2021/01/18 06:20:26;;;;;;;19.33;14.13;;;;;;;-144.01;100.00;62166.59;5098822;28;20059;-53
2021/01/18 06:22:58;;;;;;;17.88;13.80;;;;;;;-144.01;100.00;62166.59;5098880;28;20048;-79
2021/01/18 06:25:35;;;;;;;19.88;14.52;;;;;;;-144.01;100.00;62166.59;5113070;28;20047;-76
2021/01/18 06:28:03;;;;;;;19.80;15.13;;;;;;;-144.01;100.00;62166.59;5118868;28;20501;-53
2021/01/18 06:30:33;;;;;;;18.25;13.93;;;;;;;-144.01;100.00;62166.59;5119182;28;20043;-79
2021/01/18 06:33:10;;;;;;;16.95;13.27;;;;;;;-144.01;100.00;62166.59;5118945;28;20054;-77
2021/01/18 06:35:37;;;;;;;17.63;13.50;;;;;;;-144.01;100.00;62166.59;5118330;28;20048;-54
2021/01/18 06:38:07;;;;;;;16.63;12.75;;;;;;;-144.01;100.00;62166.59;5101618;28;20083;-77
2021/01/18 06:40:38;;;;;;;16.13;13.20;;;;;;;-144.01;100.00;62166.59;5098610;28;20047;-77
2021/01/18 06:43:08;;;;;;;14.95;12.52;;;;;;;-144.01;100.00;62166.59;5085129;28;20447;-68
2021/01/18 06:45:41;;;;;;;16.05;12.90;;;;;;;-144.01;100.00;62166.59;5077811;28;20348;-77
2021/01/18 06:48:09;;;;;;;14.27;11.95;;;;;;;-144.01;100.00;62166.59;5080659;28;20044;-58
2021/01/18 06:50:38;;;;;;;16.33;12.82;;;;;;;-144.01;100.00;62166.59;5078046;28;20048;-53
2021/01/18 06:53:15;;;;;;;15.52;11.80;;;;;;;-144.01;100.00;62166.59;5077954;28;20052;-53
2021/01/18 06:56:23;;;;;;;15.27;12.50;;;;;;;-144.01;100.00;62166.59;5077845;28;20110;-75
2021/01/18 06:58:56;;;;;;;14.23;10.88;;;;;;;-144.01;100.00;62166.59;5077592;28;20075;-56
2021/01/18 07:01:30;;;;;;;;;;;;;;;-144.01;100.00;62166.59;5077545;28;20078;-61
2021/01/18 07:04:07;;;;;;;13.68;9.98;;;;;;;-144.01;100.00;62166.59;5077866;28;19920;-53
2021/01/18 07:06:42;;;;;;;15.45;11.15;;;;;;;-144.01;100.00;62166.59;5080735;28;20054;-79
2021/01/18 07:09:17;;;;;;;14.13;10.68;;;;;;;-144.01;100.00;62166.59;5082340;28;20078;-70
2021/01/18 07:11:44;;;;;;;11.45;9.57;;;;;;;-144.01;100.00;62166.59;5077616;28;20052;-78
2021/01/18 07:14:12;;;;;;;13.05;9.68;;;;;;;-144.01;100.00;62166.59;5077423;28;20044;-55
2021/01/18 07:16:41;;;;;;;13.00;10.20;;;;;;;-144.01;100.00;62166.59;5080977;28;20056;-79
2021/01/18 07:19:09;;;;;;;12.68;9.15;;;;;;;-144.01;100.00;62166.59;5080075;28;20064;-73
2021/01/18 07:22:03;;;;;;;11.00;9.10;;;;;;;-144.01;100.00;62166.59;5077313;28;20044;-54
2021/01/18 07:24:31;;;;;;;10.27;8.52;;;;;;;-144.01;100.00;62166.59;5077088;28;20071;-74
2021/01/18 07:27:05;;;;;;;10.68;8.20;;;;;;;-144.01;100.00;62166.59;5099011;28;20047;-59
2021/01/18 07:29:33;;;;;;;13.10;8.45;;;;;;;-144.01;100.00;62166.59;5097042;28;20043;-79
2021/01/18 07:32:00;;;;;;;10.88;9.23;;;;;;;-144.01;100.00;62166.59;5096836;28;20332;-79
2021/01/18 07:34:28;;;;;;;10.80;9.35;;;;;;;-144.01;100.00;62166.59;5069848;28;20052;-53
2021/01/18 07:37:07;;;;;;;12.35;9.18;;;;;;;-144.01;100.00;62166.59;5110197;28;20047;-54
2021/01/18 07:39:39;;;;;;;12.27;9.63;;;;;;;-144.01;100.00;62166.59;5097146;28;20055;-55
2021/01/18 07:42:32;;;;;;;13.83;8.70;;;;;;;-144.01;100.00;62166.59;5081549;28;20044;-55
2021/01/18 07:45:12;;;;;;;14.95;8.27;;;;;;;-144.01;100.00;62166.59;5092531;28;20356;-54
2021/01/18 07:47:57;;;;;;;14.98;9.20;;;;;;;-144.01;100.00;62166.59;5081185;28;20052;-53
2021/01/18 07:50:27;;;;;;;9.70;7.75;;;;;;;-144.01;100.00;62166.59;5076581;28;20044;-57
2021/01/18 07:53:05;;;;;;;9.60;7.47;;;;;;;-144.01;100.00;62166.59;5076659;28;20040;-55
2021/01/18 07:55:33;;;;;;;12.95;7.38;;;;;;;-144.01;100.00;62166.59;5076343;28;20049;-55
2021/01/18 07:58:20;;;;;;;9.75;7.68;;;;;;;-144.01;100.00;62166.59;5089949;28;20067;-53
2021/01/18 08:00:51;;;;;;;11.85;7.43;;;;;;;-144.01;100.00;62166.59;5114466;28;20054;-55
2021/01/18 08:03:20;;;;;;;9.23;7.22;;;;;;;-144.01;100.00;62166.59;5117464;28;20093;-77
2021/01/18 08:05:48;;;;;;;11.65;7.70;;;;;;;-144.01;100.00;62166.59;5117070;28;20154;-57
2021/01/18 08:08:17;;;;;;;10.65;8.45;;;;;;;-144.01;100.00;62166.59;5101170;28;20062;-77
2021/01/18 08:10:52;;;;;;;13.07;8.35;;;;;;;-144.01;100.00;62166.59;5096958;28;20439;-66
2021/01/18 08:13:32;;;;;;;10.00;8.18;;;;;;;-144.01;100.00;62166.59;5096835;28;20077;-65
2021/01/18 08:16:29;;;;;;;9.90;7.97;;;;;;;-144.01;100.00;62166.59;5096733;28;20058;-78
2021/01/18 08:18:59;;;;;;;11.43;8.07;;;;;;;-144.01;100.00;62166.59;5087910;28;20430;-74
2021/01/18 08:21:35;;;;;;;8.77;7.40;;;;;;;-144.01;100.00;62166.59;5096697;28;20048;-79
2021/01/18 08:24:03;;;;;;;8.50;7.03;;;;;;;-144.01;100.00;62166.59;5096410;28;20059;-81
2021/01/18 08:26:50;;;;;;;9.65;7.85;;;;;;;-144.01;100.00;62166.59;5096145;28;20052;-73
2021/01/18 08:29:41;;;;;;;10.20;7.55;;;;;;;-144.01;100.00;62166.59;5089519;28;20043;-60
2021/01/18 08:32:24;;;;;;;9.55;7.25;;;;;;;-144.01;100.00;62166.59;5096215;28;20048;-55
2021/01/18 08:34:53;;;;;;;10.82;7.53;;;;;;;-144.01;100.00;62166.59;5096926;28;20446;-54
2021/01/18 08:37:20;;;;;;;8.45;7.32;;;;;;;-144.01;100.00;62166.59;5087550;28;20044;-54
2021/01/18 08:40:14;;;;;;;12.18;7.97;;;;;;;-144.01;100.00;62166.59;5075954;28;20761;-73
2021/01/18 08:42:43;;;;;;;9.05;7.10;;;;;;;-144.01;100.00;62166.59;5068858;28;20048;-81
2021/01/18 08:45:28;;;;;;;10.77;7.40;;;;;;;-144.01;100.00;62166.59;5067774;28;20443;-66
2021/01/18 08:48:00;;;;;;;12.27;7.13;;;;;;;-144.01;100.00;62166.59;5087235;28;20055;-53
2021/01/18 08:50:56;;;;;;;10.55;7.65;;;;;;;-144.01;100.00;62166.59;5095999;28;20058;-63
2021/01/18 08:53:43;;;;;;;9.07;6.22;;;;;;;-144.01;100.00;62166.59;5096004;28;20043;-79
2021/01/18 08:56:25;;;;;;;14.00;7.28;;;;;;;-144.01;100.00;62166.59;5096032;28;20051;-54
2021/01/18 08:58:53;;;;;;;7.78;6.07;;;;;;;-144.01;100.00;62166.59;5095597;28;20044;-80
2021/01/18 09:01:22;;;;;;;10.32;6.47;;;;;;;-144.01;100.00;62166.59;5095843;28;20126;-67
2021/01/18 09:03:57;;;;;;;8.05;6.10;;;;;;;-144.01;100.00;62166.59;5095664;28;20463;-81
2021/01/18 09:06:24;;;;;;;7.63;5.60;;;;;;;-144.01;100.00;62166.59;5075801;28;20041;-74
2021/01/18 09:09:01;;;;;;;10.93;6.75;;;;;;;-144.01;100.00;62166.59;5109916;28;20455;-63
2021/01/18 09:11:28;;;;;;;10.60;6.97;;;;;;;-144.01;100.00;62166.59;5095778;28;20056;-55
2021/01/18 09:13:56;;;;;;;11.25;7.13;;;;;;;-144.01;100.00;62166.59;5082100;28;20045;-54
2021/01/18 09:16:23;;;;;;;11.13;7.35;;;;;;;-144.01;100.00;62166.59;5075271;28;20048;-53
2021/01/18 09:18:50;;;;;;;13.65;8.40;;;;;;;-144.01;100.00;62166.59;5093123;28;20051;-56
2021/01/18 09:21:18;;;;;;;12.45;7.88;;;;;;;-144.01;100.00;62166.59;5084593;28;20055;-53
2021/01/18 09:23:46;;;;;;;11.05;7.57;;;;;;;-144.01;100.00;62166.59;5075171;28;20391;-54
2021/01/18 09:26:15;;;;;;;9.25;7.13;;;;;;;-144.01;100.00;62166.59;5075282;28;20044;-55
2021/01/18 09:28:52;;;;;;;9.93;7.93;;;;;;;-144.01;100.00;62166.59;5087232;28;20048;-76
2021/01/18 09:31:20;;;;;;;9.35;6.72;;;;;;;-144.01;100.00;62166.59;5075525;28;20450;-54
2021/01/18 09:33:48;;;;;;;10.63;7.47;;;;;;;-144.01;100.00;62166.59;5075027;28;20052;-80
2021/01/18 09:36:17;;;;;;;11.13;7.82;;;;;;;-144.01;100.00;62166.59;5106915;28;20450;-82
2021/01/18 09:38:46;;;;;;;10.82;8.38;;;;;;;-144.01;100.00;62166.59;5115449;28;20047;-65
2021/01/18 09:41:14;;;;;;;11.45;7.72;;;;;;;-144.01;100.00;62166.59;5115915;28;20039;-74
2021/01/18 09:43:42;;;;;;;9.70;7.68;;;;;;;-144.01;100.00;62166.59;5115475;28;20058;-83
2021/01/18 09:46:10;;;;;;;9.23;7.32;;;;;;;-144.01;100.00;62166.59;5104857;28;20053;-80
2021/01/18 09:48:37;;;;;;;11.35;7.60;;;;;;;-144.01;100.00;62166.59;5090445;28;20051;-81
2021/01/18 09:51:07;;;;;;;9.82;7.55;;;;;;;-144.01;100.00;62166.59;5095383;28;20048;-60
2021/01/18 09:53:35;;;;;;;7.82;6.68;;;;;;;-144.01;100.00;62166.59;5095996;28;20055;-67
2021/01/18 09:56:12;;;;;;;9.20;7.82;;;;;;;-144.01;100.00;62166.59;5081546;28;20056;-74
2021/01/18 09:58:44;;;;;;;9.57;7.20;;;;;;;-144.01;100.00;62166.59;5110060;28;20059;-54
2021/01/18 10:01:12;;;;;;;12.70;7.90;;;;;;;-144.01;100.00;62166.59;5099449;28;20054;-76
2021/01/18 10:03:40;;;;;;;9.35;7.38;;;;;;;-144.01;100.00;62166.59;5099193;28;20394;-75
2021/01/18 10:06:21;;;;;;;9.68;6.50;;;;;;;-144.01;100.00;62166.59;5074362;28;20059;-80
2021/01/18 10:08:49;;;;;;;11.10;7.60;;;;;;;-144.01;100.00;62166.59;5110804;28;20052;-80
2021/01/18 10:11:47;;;;;;;8.95;7.20;;;;;;;-144.01;100.00;62166.59;5099120;28;20040;-71
2021/01/18 10:14:20;;;;;;;9.55;6.95;;;;;;;-144.01;100.00;62166.59;5098822;28;20055;-82
2021/01/18 10:17:07;;;;;;;9.27;6.97;;;;;;;-144.01;100.00;62166.59;5089834;28;20439;-78
2021/01/18 10:19:36;;;;;;;8.82;7.03;;;;;;;-144.01;100.00;62166.59;5078371;28;20051;-82
2021/01/18 10:22:15;;;;;;;12.15;6.72;;;;;;;-144.01;100.00;62166.59;5078470;28;20379;-81
2021/01/18 10:24:42;;;;;;;8.98;6.88;;;;;;;-144.01;100.00;62166.59;5078430;28;20056;-67
2021/01/18 10:27:12;;;;;;;17.85;6.60;;;;;;;-144.01;100.00;62166.59;5087314;28;20056;-53
2021/01/18 10:29:42;;;;;;;10.40;7.55;;;;;;;-144.01;100.00;62166.59;5098517;28;20047;-54
2021/01/18 10:32:10;;;;;;;9.15;6.97;;;;;;;-144.01;100.00;62166.59;5098519;28;20040;-54
2021/01/18 10:34:38;;;;;;;10.02;7.32;;;;;;;-144.01;100.00;62166.59;5103554;28;20370;-80
2021/01/18 10:37:13;;;;;;;10.73;8.30;;;;;;;-144.01;100.00;62166.59;5117609;28;20051;-54
2021/01/18 10:39:42;;;;;;;9.13;6.93;;;;;;;-144.01;100.00;62166.59;5098531;28;20044;-54
2021/01/18 10:42:15;;;;;;;8.60;6.90;;;;;;;-144.01;100.00;62166.59;5081144;28;20055;-78
2021/01/18 10:44:49;;;;;;;8.25;6.32;;;;;;;-144.01;100.00;62166.59;5114126;28;20125;-54
2021/01/18 10:47:22;;;;;;;8.07;6.25;;;;;;;-144.01;100.00;62166.59;5080008;28;20048;-54
2021/01/18 10:49:59;;;;;;;8.63;6.35;;;;;;;-144.01;100.00;62166.59;5098311;28;20047;-56
2021/01/18 10:52:41;;;;;;;7.38;5.63;;;;;;;-144.01;100.00;62166.59;5098274;28;20474;-69
2021/01/18 10:55:13;;;;;;;6.57;5.72;;;;;;;-144.01;100.00;62166.59;5098187;28;20059;-61
2021/01/18 10:57:41;;;;;;;8.50;6.22;;;;;;;-144.01;100.00;62166.59;5097799;28;20059;-72
2021/01/18 11:00:20;;;;;;;9.73;6.30;;;;;;;-144.01;100.00;62166.59;5098066;28;20056;-76
2021/01/18 11:03:03;;;;;;;8.38;6.53;;;;;;;-144.01;100.00;62166.59;5098026;28;20056;-64
2021/01/18 11:05:36;;;;;;;8.07;6.63;;;;;;;-144.01;100.00;62166.59;5109544;28;20047;-80
2021/01/18 11:08:08;;;;;;;7.50;6.20;;;;;;;-144.01;100.00;62166.59;5109757;28;20055;-82
2021/01/18 11:10:38;;;;;;;9.23;6.78;;;;;;;-144.01;100.00;62166.59;5081277;28;20041;-63
2021/01/18 11:13:13;;;;;;;8.50;6.80;;;;;;;-144.01;100.00;62166.59;5059917;28;20052;-67
2021/01/18 11:15:42;;;;;;;17.20;12.70;;;;;;;-144.01;100.00;62166.59;5059624;28;20056;-54
2021/01/18 11:18:12;;;;;;;26.42;17.52;;;;;;;-144.01;100.00;62166.59;5086073;28;20338;-54
2021/01/18 11:20:41;;;;;;;34.15;22.13;;;;;;;-144.01;100.00;62166.59;5097540;28;20476;-53
2021/01/18 11:23:10;;;;;;;17.33;10.82;;;;;;;-144.01;100.00;62166.59;5097594;28;20043;-54
2021/01/18 11:25:39;;;;;;;13.07;10.30;;;;;;;-144.01;100.00;62166.59;5097402;28;20450;-53